Time;durP1;ratioP1;P1;durP2;ratioP2;P2;SDS_P1;SDS_P2;PMS_P1;PMS_P2;Temp;Humidity;BMP_temperature;BMP_pressure;BME280_temperature;BME280_humidity;BME280_pressure;Samples;Min_cycle;Max_cycle;Signal;HPM_P1;HPM_P2
2022/03/18 00:00:00;;;;;;;;;;;;;;;3.28;100.00;103943.78;4957358;29;19940;-73
2022/03/18 00:02:26;;;;;;;;;;;;;;;3.22;100.00;103954.03;4955904;29;20390;-72
2022/03/18 00:04:52;;;;;;;;;;;;;;;3.20;100.00;103951.34;4955740;29;19922;-72
2022/03/18 00:07:18;;;;;;;;;;;;;;;3.21;100.00;103957.50;4955558;29;20395;-72
2022/03/18 00:09:43;;;;;;;;;;;;;;;3.19;100.00;103965.31;4955702;29;20387;-72
2022/03/18 00:12:09;;;;;;;;;;;;;;;3.12;100.00;103965.91;4955976;29;19922;-72
2022/03/18 00:14:34;;;;;;;;;;;;;;;3.06;100.00;103970.94;4955638;29;20399;-72
2022/03/18 00:16:59;;;;;;;;;;;;;;;3.04;100.00;103970.00;4955597;29;19956;-72
2022/03/18 00:19:25;;;;;;;;;;;;;;;3.00;100.00;103973.34;4955672;29;19942;-72
2022/03/18 00:21:54;;;;;;;;;;;;;;;3.00;100.00;103978.59;4955571;28;19919;-72
2022/03/18 00:24:19;;;;;;;;;;;;;;;2.94;100.00;103974.03;4955410;28;19923;-72
2022/03/18 00:26:44;;;;;;;;;;;;;;;2.91;100.00;103976.53;4955416;29;19925;-72
2022/03/18 00:29:10;;;;;;;;;;;;;;;2.98;100.00;103972.38;4955329;29;20376;-72
2022/03/18 00:31:35;;;;;;;;;;;;;;;2.95;100.00;103983.69;4956467;29;20406;-72
2022/03/18 00:34:01;;;;;;;;;;;;;;;2.96;100.00;103982.81;4955278;29;19945;-72
2022/03/18 00:36:26;;;;;;;;;;;;;;;2.93;100.00;103990.59;4955224;29;19969;-72
2022/03/18 00:38:52;;;;;;;;;;;;;;;2.91;100.00;103989.66;4955370;29;19922;-72
2022/03/18 00:41:18;;;;;;;;;;;;;;;2.90;100.00;103990.47;4955059;29;20382;-72
2022/03/18 00:43:44;;;;;;;;;;;;;;;2.87;100.00;103999.94;4955101;28;19966;-72
2022/03/18 00:46:09;;;;;;;;;;;;;;;2.80;100.00;104003.19;4955081;29;19957;-72
2022/03/18 00:54:03;;;;;;;;;;;;;;;2.75;100.00;104002.09;4956606;29;19934;-72
2022/03/18 00:56:28;;;;;;;;;;;;;;;2.71;100.00;103995.84;4954795;28;19919;-72
2022/03/18 00:58:53;;;;;;;;;;;;;;;2.76;100.00;104002.16;4954798;29;19924;-72
2022/03/18 01:01:18;;;;;;;;;;;;;;;2.73;100.00;103996.81;4956178;29;19929;-72
2022/03/18 01:03:43;;;;;;;;;;;;;;;2.75;100.00;103994.22;4954790;29;19926;-73
2022/03/18 01:06:09;;;;;;;;;;;;;;;2.72;100.00;103997.66;4955750;29;20328;-72
2022/03/18 01:08:34;;;;;;;;;;;;;;;2.73;100.00;104003.78;4954771;29;19930;-72
2022/03/18 01:11:01;;;;;;;;;;;;;;;2.70;100.00;104001.94;4954727;29;20375;-72
2022/03/18 01:13:26;;;;;;;;;;;;;;;2.64;100.00;104006.03;4956064;28;19919;-72
2022/03/18 01:15:51;;;;;;;;;;;;;;;2.61;100.00;104006.81;4954479;29;20319;-72
2022/03/18 01:18:16;;;;;;;;;;;;;;;2.62;100.00;104011.22;4955835;29;19925;-72
2022/03/18 01:20:42;;;;;;;;;;;;;;;2.53;100.00;104017.81;4954624;29;19919;-72
2022/03/18 01:23:07;;;;;;;;;;;;;;;2.48;100.00;104021.97;4955745;29;19919;-73
2022/03/18 01:25:33;;;;;;;;;;;;;;;2.50;100.00;104013.38;4956336;28;20512;-72
2022/03/18 01:27:58;;;;;;;;;;;;;;;2.45;100.00;104008.75;4955023;28;20340;-72
2022/03/18 01:30:24;;;;;;;;;;;;;;;2.37;100.00;104007.53;4955652;29;19919;-73
2022/03/18 01:32:49;;;;;;;;;;;;;;;2.40;100.00;104011.19;4954771;29;19923;-72
2022/03/18 01:35:14;;;;;;;;;;;;;;;2.37;100.00;104010.16;4954402;29;19922;-72
2022/03/18 01:37:39;;;;;;;;;;;;;;;2.36;100.00;104006.66;4954484;29;19919;-72
2022/03/18 01:40:05;;;;;;;;;;;;;;;2.35;100.00;104014.47;4954392;29;20287;-72
2022/03/18 01:42:30;;;;;;;;;;;;;;;2.36;100.00;104008.38;4954410;29;20283;-72
2022/03/18 01:44:56;;;;;;;;;;;;;;;2.37;100.00;104010.16;4955848;29;19981;-72
2022/03/18 01:47:22;;;;;;;;;;;;;;;2.37;100.00;104016.31;4956058;28;19953;-70
2022/03/18 01:49:47;;;;;;;;;;;;;;;2.38;100.00;104018.09;4955498;28;20439;-70
2022/03/18 01:59:58;;;;;;;;;;;;;;;2.32;100.00;104030.97;5025113;23;19926;-71
2022/03/18 02:02:23;;;;;;;;;;;;;;;2.31;100.00;104029.19;5013811;28;20386;-72
2022/03/18 02:04:49;;;;;;;;;;;;;;;2.33;100.00;104035.34;5008147;28;19925;-72
2022/03/18 02:07:32;;;;;;;;;;;;;;;2.29;100.00;104036.06;5003118;28;19928;-71
2022/03/18 02:09:58;;;;;;;;;;;;;;;2.23;100.00;104035.81;4998237;28;19918;-72
2022/03/18 02:12:23;;;;;;;;;;;;;;;2.29;100.00;104035.16;4997875;28;19924;-72
2022/03/18 02:14:54;;;;;;;;;;;;;;;2.25;100.00;104041.13;4996687;28;19914;-72
2022/03/18 02:17:20;;;;;;;;;;;;;;;2.24;100.00;104040.22;5014143;28;19922;-72
2022/03/18 02:19:46;;;;;;;;;;;;;;;2.22;100.00;104035.75;5016022;28;19924;-71
2022/03/18 02:22:11;;;;;;;;;;;;;;;2.20;100.00;104043.56;5017047;28;19953;-71
2022/03/18 02:24:37;;;;;;;;;;;;;;;2.24;100.00;104040.22;5016818;28;20000;-72
2022/03/18 02:27:02;;;;;;;;;;;;;;;2.24;100.00;104050.72;5017140;28;19917;-71
2022/03/18 02:29:28;;;;;;;;;;;;;;;2.20;100.00;104056.69;5016125;28;20267;-71
2022/03/18 02:31:53;;;;;;;;;;;;;;;2.11;100.00;104072.00;5016346;28;20028;-71
2022/03/18 02:34:19;;;;;;;;;;;;;;;2.07;100.00;104075.31;5017332;28;19924;-71
2022/03/18 02:36:44;;;;;;;;;;;;;;;2.06;100.00;104070.91;5017872;28;19968;-71
2022/03/18 02:39:10;;;;;;;;;;;;;;;2.08;100.00;104071.88;5017556;28;19918;-71
2022/03/18 02:41:35;;;;;;;;;;;;;;;2.11;100.00;104072.00;5017032;28;19929;-71
2022/03/18 02:44:00;;;;;;;;;;;;;;;2.09;100.00;104081.53;5017489;28;19917;-72
2022/03/18 02:46:26;;;;;;;;;;;;;;;1.96;100.00;104081.81;5015802;28;19924;-72
2022/03/18 02:48:51;;;;;;;;;;;;;;;1.93;100.00;104091.28;5016636;28;19928;-72
2022/03/18 02:51:16;;;;;;;;;;;;;;;1.92;100.00;104090.41;5006974;28;19918;-72
2022/03/18 02:53:41;;;;;;;;;;;;;;;1.87;100.00;104094.53;4996761;28;19918;-72
2022/03/18 02:56:07;;;;;;;;;;;;;;;1.84;100.00;104102.25;4996885;28;20375;-72
2022/03/18 02:58:34;;;;;;;;;;;;;;;1.84;100.00;104103.97;4995116;28;20012;-72
2022/03/18 03:00:59;;;;;;;;;;;;;;;1.86;100.00;104103.19;4996933;28;19937;-72
2022/03/18 03:03:24;;;;;;;;;;;;;;;1.79;100.00;104114.25;4995098;28;19995;-72
2022/03/18 03:08:33;;;;;;;;;;;;;;;1.76;100.00;104135.09;4997363;28;19940;-72
2022/03/18 03:10:59;;;;;;;;;;;;;;;1.75;100.00;104130.66;4995319;28;19917;-72
2022/03/18 03:13:24;;;;;;;;;;;;;;;1.78;100.00;104135.16;4995122;28;19922;-72
2022/03/18 03:15:50;;;;;;;;;;;;;;;1.82;100.00;104145.84;4995233;28;19988;-72
2022/03/18 03:18:15;;;;;;;;;;;;;;;1.82;100.00;104142.31;4993623;28;19918;-72
2022/03/18 03:20:40;;;;;;;;;;;;;;;1.83;100.00;104149.38;4996591;28;19940;-72
2022/03/18 03:23:05;;;;;;;;;;;;;;;1.75;100.00;104154.22;4990191;28;19918;-72
2022/03/18 03:25:31;;;;;;;;;;;;;;;1.69;100.00;104150.47;4977504;28;19918;-72
2022/03/18 03:27:56;;;;;;;;;;;;;;;1.69;100.00;104151.34;4976687;28;19918;-72
2022/03/18 03:30:27;;;;;;;;;;;;;;;1.71;100.00;104157.56;4976626;28;19964;-72
2022/03/18 03:32:53;;;;;;;;;;;;;;;1.72;100.00;104161.06;4976816;28;19922;-71
2022/03/18 03:35:18;;;;;;;;;;;;;;;1.72;100.00;104161.94;4991884;28;19926;-72
2022/03/18 03:37:44;;;;;;;;;;;;;;;1.74;100.00;104157.69;4976758;28;20442;-71
2022/03/18 03:40:12;;;;;;;;;;;;;;;1.68;100.00;104157.41;4976681;28;19918;-71
2022/03/18 03:42:39;;;;;;;;;;;;;;;1.63;100.00;104168.50;4976481;28;19981;-71
2022/03/18 03:45:05;;;;;;;;;;;;;;;1.55;100.00;104169.03;4976775;28;19930;-71
2022/03/18 03:47:30;;;;;;;;;;;;;;;1.54;100.00;104177.72;4976642;28;20372;-71
2022/03/18 03:49:55;;;;;;;;;;;;;;;1.57;100.00;104184.84;4991172;28;19991;-71
2022/03/18 03:52:20;;;;;;;;;;;;;;;1.58;100.00;104182.28;4975234;28;19929;-71
2022/03/18 03:54:46;;;;;;;;;;;;;;;1.59;100.00;104180.56;4976041;28;19922;-71
2022/03/18 03:57:11;;;;;;;;;;;;;;;1.61;100.00;104186.75;4975957;28;20017;-72
2022/03/18 03:59:36;;;;;;;;;;;;;;;1.58;100.00;104197.09;4975809;28;19970;-72
2022/03/18 04:02:03;;;;;;;;;;;;;;;1.50;100.00;104191.50;4976040;28;19918;-72
2022/03/18 04:04:28;;;;;;;;;;;;;;;1.51;100.00;104208.13;4990733;28;19918;-72
2022/03/18 04:06:53;;;;;;;;;;;;;;;1.52;100.00;104209.91;4976107;28;19977;-73
2022/03/18 04:09:18;;;;;;;;;;;;;;;1.53;100.00;104203.81;4991699;28;19925;-71
2022/03/18 04:11:43;;;;;;;;;;;;;;;1.53;100.00;104209.97;4976126;28;20343;-71
2022/03/18 04:14:09;;;;;;;;;;;;;;;1.55;100.00;104223.16;4975931;28;19960;-71
2022/03/18 04:16:35;;;;;;;;;;;;;;;1.54;100.00;104224.84;4991070;28;20457;-71
2022/03/18 04:19:00;;;;;;;;;;;;;;;1.53;100.00;104230.03;4976452;28;19918;-71
2022/03/18 04:21:25;;;;;;;;;;;;;;;1.51;100.00;104229.06;4975679;28;19973;-72
2022/03/18 04:23:51;;;;;;;;;;;;;;;1.51;100.00;104226.47;4990624;28;19926;-72
2022/03/18 04:26:16;;;;;;;;;;;;;;;1.50;100.00;104235.13;4974289;28;20002;-72
2022/03/18 04:28:41;;;;;;;;;;;;;;;1.45;100.00;104242.75;4990421;28;19973;-72
2022/03/18 04:31:06;;;;;;;;;;;;;;;1.33;100.00;104238.66;4975367;28;20299;-72
2022/03/18 04:33:31;;;;;;;;;;;;;;;1.28;100.00;104255.84;4974181;28;19992;-72
2022/03/18 04:35:57;;;;;;;;;;;;;;;1.24;100.00;104277.47;4975051;28;20398;-72
2022/03/18 04:38:23;;;;;;;;;;;;;;;1.28;100.00;104290.78;4975382;28;19918;-72
2022/03/18 04:40:49;;;;;;;;;;;;;;;1.27;100.00;104295.94;4975248;28;20434;-72
2022/03/18 04:43:14;;;;;;;;;;;;;;;1.25;100.00;104298.50;4989980;28;19922;-71
2022/03/18 04:45:39;;;;;;;;;;;;;;;1.27;100.00;104298.56;4975257;28;19922;-72
2022/03/18 04:48:04;;;;;;;;;;;;;;;1.26;100.00;104297.66;4975814;28;20005;-71
2022/03/18 04:50:30;;;;;;;;;;;;;;;1.27;100.00;104298.56;4975074;28;19950;-72
2022/03/18 04:52:55;;;;;;;;;;;;;;;1.21;100.00;104293.03;4974076;28;19923;-71
2022/03/18 04:55:21;;;;;;;;;;;;;;;1.20;100.00;104292.13;4990158;28;20292;-72
2022/03/18 04:57:46;;;;;;;;;;;;;;;1.23;100.00;104294.91;4989736;28;20036;-72
2022/03/18 05:00:12;;;;;;;;;;;;;;;1.27;100.00;104296.84;4975714;28;19922;-72
2022/03/18 05:02:37;;;;;;;;;;;;;;;1.27;100.00;104299.47;4975703;28;20025;-72
2022/03/18 05:05:04;;;;;;;;;;;;;;;1.30;100.00;104314.44;4990341;28;19919;-71
2022/03/18 05:07:29;;;;;;;;;;;;;;;1.31;100.00;104321.44;4975447;28;20017;-72
2022/03/18 05:09:54;;;;;;;;;;;;;;;1.20;100.00;104322.63;4974416;28;19958;-71
2022/03/18 05:12:20;;;;;;;;;;;;;;;1.17;100.00;104327.72;4975740;28;20374;-71
2022/03/18 05:14:45;;;;;;;;;;;;;;;1.19;100.00;104321.75;4975767;28;19919;-71
2022/03/18 05:17:11;;;;;;;;;;;;;;;1.17;100.00;104327.72;4993509;28;19971;-71
2022/03/18 05:19:36;;;;;;;;;;;;;;;1.09;100.00;104332.56;4994455;28;19925;-71
2022/03/18 05:22:02;;;;;;;;;;;;;;;1.09;100.00;104350.88;4994462;28;19973;-71
2022/03/18 05:24:27;;;;;;;;;;;;;;;1.11;100.00;104353.59;4994056;28;19918;-72
2022/03/18 05:26:53;;;;;;;;;;;;;;;1.10;100.00;104354.41;4993657;28;19945;-72
2022/03/18 05:29:19;;;;;;;;;;;;;;;1.03;100.00;104357.50;4994649;28;19918;-72
2022/03/18 05:32:00;;;;;;;;;;;;;;;1.01;100.00;104354.81;4993211;28;19925;-70
2022/03/18 05:34:44;;;;;;;;;;;;;;;1.00;100.00;104357.34;4994299;28;19921;-73
2022/03/18 05:37:10;;;;;;;;;;;;;;;0.99;100.00;104368.66;4994087;28;19925;-71
2022/03/18 05:39:36;;;;;;;;;;;;;;;0.99;100.00;104374.78;4992651;28;19921;-72
2022/03/18 05:42:01;;;;;;;;;;;;;;;1.03;100.00;104381.06;4993188;28;19918;-72
2022/03/18 05:44:26;;;;;;;;;;;;;;;1.04;100.00;104388.13;4992624;28;19921;-72
2022/03/18 05:46:52;;;;;;;;;;;;;;;0.98;100.00;104396.53;4993981;28;19918;-72
2022/03/18 05:49:18;;;;;;;;;;;;;;;1.03;100.00;104404.63;4992811;28;19917;-72
2022/03/18 05:51:44;;;;;;;;;;;;;;;1.06;100.00;104407.41;4993907;28;19918;-72
2022/03/18 05:54:09;;;;;;;;;;;;;;;1.05;100.00;104413.47;4992788;28;19987;-73
2022/03/18 05:56:53;;;;;;;;;;;;;;;1.03;100.00;104405.53;4994049;28;19968;-75
2022/03/18 05:59:23;;;;;;;;;;;;;;;1.09;100.00;104415.41;4977125;28;19927;-74
2022/03/18 06:01:48;;;;;;;;;;;;;;;1.12;100.00;104413.88;4976786;28;19918;-71
2022/03/18 06:04:14;;;;;;;;;;;;;;;1.14;100.00;104425.31;4976084;28;19929;-71
2022/03/18 06:06:40;;;;;;;;;;;;;;;1.15;100.00;104419.25;4991427;28;19918;-71
2022/03/18 06:11:49;;;;;;;;;;;;;;;1.20;100.00;104430.88;4994744;28;20052;-72
2022/03/18 06:14:18;;;;;;;;;;;;;;;1.23;100.00;104430.16;4992816;28;19976;-72
2022/03/18 06:16:47;;;;;;;;;;;;;;;1.25;100.00;104433.72;4993946;28;20315;-72
2022/03/18 06:19:14;;;;;;;;;;;;;;;1.25;100.00;104437.25;4993393;28;20012;-73
2022/03/18 06:21:40;;;;;;;;;;;;;;;1.26;100.00;104448.66;4995894;28;20008;-74
2022/03/18 06:24:05;;;;;;;;;;;;;;;1.31;100.00;104453.28;4993529;28;19964;-73
2022/03/18 06:26:33;;;;;;;;;;;;;;;1.36;100.00;104451.81;4993876;28;19928;-70
2022/03/18 06:28:58;;;;;;;;;;;;;;;1.47;100.00;104457.59;4994328;28;19929;-71
2022/03/18 06:31:23;;;;;;;;;;;;;;;1.50;100.00;104455.13;4993416;28;20375;-71
2022/03/18 06:33:48;;;;;;;;;;;;;;;1.57;100.00;104465.13;4993403;28;19976;-71
2022/03/18 06:36:14;;;;;;;;;;;;;;;1.63;100.00;104468.06;4993479;28;19945;-71
2022/03/18 06:38:39;;;;;;;;;;;;;;;1.67;100.00;104471.72;4991798;28;19921;-70
2022/03/18 06:41:05;;;;;;;;;;;;;;;1.69;100.00;104473.59;4993873;28;19964;-70
2022/03/18 06:43:30;;;;;;;;;;;;;;;1.75;100.00;104476.53;4993217;28;19918;-71
2022/03/18 06:45:55;;;;;;;;;;;;;;;1.86;100.00;104482.34;4992007;28;20425;-71
2022/03/18 06:48:21;;;;;;;;;;;;;;;1.92;100.00;104494.03;4992233;28;20326;-71
2022/03/18 06:50:46;;;;;;;;;;;;;;;1.94;100.00;104500.22;4993401;28;19918;-72
2022/03/18 06:53:11;;;;;;;;;;;;;;;1.96;100.00;104501.22;4994220;28;19944;-72
2022/03/18 06:55:36;;;;;;;;;;;;;;;2.03;100.00;104505.97;4997211;28;19918;-70
2022/03/18 06:58:01;;;;;;;;;;;;;;;2.11;100.00;104501.97;4995394;28;19957;-71
2022/03/18 07:00:27;;;;;;;;;;;;;;;2.22;100.00;104506.03;4997118;28;19918;-74
2022/03/18 07:02:52;;;;;;;;;;;;;;;2.34;100.00;104506.66;4995518;28;19941;-72
2022/03/18 07:05:17;;;;;;;;;;;;;;;2.46;100.00;104515.09;4994605;28;19925;-74
2022/03/18 07:07:43;;;;;;;;;;;;;;;2.62;100.00;104519.38;4994184;28;20008;-71
2022/03/18 07:10:08;;;;;;;;;;;;;;;2.78;100.00;104524.53;4996531;28;20016;-71
2022/03/18 07:12:33;;;;;;;;;;;;;;;2.83;100.00;104533.53;4997089;28;19987;-70
2022/03/18 07:14:58;;;;;;;;;;;;;;;2.91;100.00;104525.19;4996510;28;19918;-71
2022/03/18 07:20:08;;;;;;;;;;;;;;;3.17;100.00;104540.44;4996320;28;20105;-70
2022/03/18 07:22:34;;;;;;;;;;;;;;;3.30;100.00;104543.59;4996610;28;20016;-70
2022/03/18 07:24:59;;;;;;;;;;;;;;;3.49;100.00;104548.88;4994709;28;19917;-72
2022/03/18 07:27:24;;;;;;;;;;;;;;;3.71;100.00;104556.88;4994963;28;20334;-72
2022/03/18 07:29:49;;;;;;;;;;;;;;;3.75;100.00;104572.00;4996378;28;20271;-73
2022/03/18 07:32:15;;;;;;;;;;;;;;;3.90;100.00;104560.41;4996338;28;19989;-72
2022/03/18 07:34:40;;;;;;;;;;;;;;;4.07;100.00;104566.38;4993474;28;20029;-72
2022/03/18 07:37:05;;;;;;;;;;;;;;;4.37;100.00;104581.75;4989946;28;19956;-72
2022/03/18 07:39:33;;;;;;;;;;;;;;;4.72;100.00;104592.03;4976199;28;19965;-75
2022/03/18 07:41:58;;;;;;;;;;;;;;;4.95;100.00;104599.94;4976537;28;19918;-71
2022/03/18 07:44:24;;;;;;;;;;;;;;;5.12;100.00;104610.28;4994688;28;19926;-71
2022/03/18 07:46:49;;;;;;;;;;;;;;;5.25;100.00;104602.03;4995489;28;19918;-73
2022/03/18 07:49:14;;;;;;;;;;;;;;;5.36;100.00;104605.97;4994028;28;20262;-70
2022/03/18 07:51:39;;;;;;;;;;;;;;;5.37;100.00;104605.16;4995642;28;19976;-70
2022/03/18 07:54:05;;;;;;;;;;;;;;;5.52;100.00;104604.81;4994501;28;20493;-71
2022/03/18 07:56:30;;;;;;;;;;;;;;;5.52;100.00;104584.66;4994795;28;19934;-71
2022/03/18 07:58:55;;;;;;;;;;;;;;;5.58;100.00;104576.94;4994395;28;19921;-72
2022/03/18 08:01:20;;;;;;;;;;;;;;;5.62;100.00;104572.69;4994705;28;21392;-72
2022/03/18 08:03:46;;;;;;;;;;;;;;;5.77;100.00;104565.34;4995314;28;20301;-71
2022/03/18 08:06:11;;;;;;;;;;;;;;;5.73;100.00;104568.72;4993936;28;20338;-72
2022/03/18 08:08:36;;;;;;;;;;;;;;;5.81;100.00;104554.06;4990767;28;19918;-73
2022/03/18 08:11:02;;;;;;;;;;;;;;;5.81;100.00;104552.34;4990403;28;19988;-72
2022/03/18 08:13:27;;;;;;;;;;;;;;;5.84;100.00;104547.19;4984837;28;19918;-72
2022/03/18 08:15:52;;;;;;;;;;;;;;;5.91;100.00;104540.38;4989282;28;19918;-71
2022/03/18 08:18:18;;;;;;;;;;;;;;;6.11;100.00;104528.78;4990883;28;19952;-72
2022/03/18 08:20:44;;;;;;;;;;;;;;;6.26;100.00;104509.94;4982436;28;19988;-73
2022/03/18 08:23:11;;;;;;;;;;;;;;;6.35;100.00;104497.03;4986517;28;20342;-74
2022/03/18 08:25:36;;;;;;;;;;;;;;;6.43;100.00;104487.63;4990916;28;20318;-78
2022/03/18 08:28:02;;;;;;;;;;;;;;;6.88;100.00;104489.06;4993167;28;19918;-74
2022/03/18 08:30:27;;;;;;;;;;;;;;;7.05;100.00;104475.50;4990628;28;20016;-72
2022/03/18 08:32:52;;;;;;;;;;;;;;;7.18;100.00;104471.47;4993176;28;20391;-72
2022/03/18 08:35:17;;;;;;;;;;;;;;;7.43;100.00;104460.72;4979989;28;19968;-74
2022/03/18 08:37:58;;;;;;;;;;;;;;;7.32;100.00;104448.94;4976355;28;19929;-72
2022/03/18 08:40:28;;;;;;;;;;;;;;;7.37;100.00;104445.59;4978629;28;19946;-71
2022/03/18 08:42:54;;;;;;;;;;;;;;;7.39;100.00;104443.00;4974964;28;19973;-73
2022/03/18 08:45:21;;;;;;;;;;;;;;;7.56;100.00;104437.28;4990765;28;20398;-72
2022/03/18 08:47:46;;;;;;;;;;;;;;;7.53;100.00;104423.97;4993192;28;19917;-73
2022/03/18 08:50:12;;;;;;;;;;;;;;;7.55;100.00;104421.38;4993316;28;19921;-72
2022/03/18 08:52:38;;;;;;;;;;;;;;;7.59;100.00;104420.63;4994681;28;20407;-72
2022/03/18 08:55:03;;;;;;;;;;;;;;;7.62;100.00;104421.59;4992818;28;19925;-72
2022/03/18 08:57:31;;;;;;;;;;;;;;;7.63;100.00;104427.75;4986119;28;19923;-72
2022/03/18 08:59:56;;;;;;;;;;;;;;;7.64;100.00;104416.34;4992693;28;19929;-72
2022/03/18 09:02:22;;;;;;;;;;;;;;;7.75;100.00;104417.53;4990682;28;19922;-71
2022/03/18 09:04:48;;;;;;;;;;;;;;;8.03;100.00;104411.16;4986074;28;19918;-71
2022/03/18 09:07:13;;;;;;;;;;;;;;;8.33;100.00;104417.22;4982675;28;19926;-71
2022/03/18 09:09:39;;;;;;;;;;;;;;;8.65;100.00;104421.50;4985083;28;20318;-71
2022/03/18 09:12:04;;;;;;;;;;;;;;;9.04;100.00;104433.81;4991975;28;19921;-71
2022/03/18 09:14:29;;;;;;;;;;;;;;;9.43;100.00;104438.13;4993858;28;19917;-72
2022/03/18 09:16:55;;;;;;;;;;;;;;;9.81;100.00;104405.22;4992848;28;19918;-73
2022/03/18 09:19:20;;;;;;;;;;;;;;;9.83;100.00;104415.00;4992401;28;19918;-72
2022/03/18 09:21:45;;;;;;;;;;;;;;;10.41;100.00;104404.47;4992449;28;19960;-73
2022/03/18 09:24:10;;;;;;;;;;;;;;;10.28;100.00;104401.59;4991261;28;20334;-73
2022/03/18 09:26:37;;;;;;;;;;;;;;;10.26;100.00;104400.66;4984604;28;20314;-72
2022/03/18 09:29:02;;;;;;;;;;;;;;;10.37;100.00;104394.66;4980434;28;19922;-71
2022/03/18 09:31:27;;;;;;;;;;;;;;;10.66;100.00;104398.63;4974012;28;19926;-72
2022/03/18 09:33:53;;;;;;;;;;;;;;;10.87;100.00;104403.31;4992325;28;20045;-71
2022/03/18 09:36:18;;;;;;;;;;;;;;;11.20;100.00;104409.06;4991505;28;20064;-72
2022/03/18 09:38:47;;;;;;;;;;;;;;;11.51;100.00;104412.91;4992035;28;19918;-72
2022/03/18 09:41:13;;;;;;;;;;;;;;;11.92;100.00;104408.91;4986410;28;19922;-72
2022/03/18 09:43:39;;;;;;;;;;;;;;;11.94;100.00;104401.81;4979229;28;19925;-71
2022/03/18 09:46:05;;;;;;;;;;;;;;;12.51;100.00;104412.00;4982801;28;19929;-71
2022/03/18 09:48:30;;;;;;;;;;;;;;;12.85;100.00;104420.19;4989159;28;19918;-71
2022/03/18 09:50:56;;;;;;;;;;;;;;;12.48;100.00;104420.84;4987663;28;20088;-75
2022/03/18 09:53:21;;;;;;;;;;;;;;;12.88;100.00;104414.84;4980378;28;19945;-71
2022/03/18 09:55:48;;;;;;;;;;;;;;;13.21;100.00;104414.13;4975461;28;19922;-72
2022/03/18 09:58:14;;;;;;;;;;;;;;;13.75;100.00;104415.13;4973172;28;19926;-73
2022/03/18 10:00:39;;;;;;;;;;;;;;;13.86;100.00;104415.13;4981446;28;19922;-71
2022/03/18 10:03:09;;;;;;;;;;;;;;;14.14;100.00;104414.22;4981242;28;19918;-71
2022/03/18 10:05:35;;;;;;;;;;;;;;;14.45;100.00;104415.97;4976715;28;20399;-72
2022/03/18 10:08:00;;;;;;;;;;;;;;;14.41;100.00;104419.56;4991297;28;19968;-72
2022/03/18 10:10:27;;;;;;;;;;;;;;;14.46;100.00;104424.91;4978171;28;19933;-72
2022/03/18 10:12:56;;;;;;;;;;;;;;;14.74;100.00;104416.81;4973290;28;19918;-72
2022/03/18 10:15:22;;;;;;;;;;;;;;;15.28;100.00;104421.91;4982420;28;20001;-71
2022/03/18 10:17:47;;;;;;;;;;;;;;;14.95;100.00;104431.91;4990812;28;19922;-73
2022/03/18 10:20:26;;;;;;;;;;;;;;;15.61;100.00;104436.03;4991118;28;20367;-71
2022/03/18 10:22:52;;;;;;;;;;;;;;;15.82;100.00;104443.94;4990404;28;19938;-72
2022/03/18 10:25:53;;;;;;;;;;;;;;;15.92;100.00;104442.94;4985775;28;19922;-73
2022/03/18 10:28:36;;;;;;;;;;;;;;;16.44;100.00;104438.88;4916754;29;19923;-73
2022/03/18 10:31:21;;;;;;;;;;;;;;;16.10;100.00;104446.38;4955887;28;19929;-73
2022/03/18 10:37:04;;;;;;;;;;;;;;;16.94;100.00;104438.38;4984421;28;20409;-73
2022/03/18 10:39:23;;;;;;;;;;;;;;;17.25;100.00;104446.00;4980468;28;19973;-74
2022/03/18 10:41:48;;;;;;;;;;;;;;;17.88;100.00;104450.47;4978530;28;19949;-73
2022/03/18 10:44:15;;;;;;;;;;;;;;;18.37;100.00;104449.63;4970369;28;20446;-74
2022/03/18 10:46:41;;;;;;;;;;;;;;;18.19;100.00;104461.59;4985242;28;19918;-71
2022/03/18 10:49:07;;;;;;;;;;;;;;;19.10;100.00;104455.38;4994210;28;19976;-71
2022/03/18 10:51:33;;;;;;;;;;;;;;;19.20;100.00;104465.03;4996248;28;20026;-72
2022/03/18 10:53:59;;;;;;;;;;;;;;;19.68;100.00;104453.19;4992622;28;19918;-71
2022/03/18 10:56:25;;;;;;;;;;;;;;;20.25;100.00;104464.41;4996648;28;20016;-71
2022/03/18 10:58:50;;;;;;;;;;;;;;;20.95;100.00;104467.81;4995398;28;19933;-71
2022/03/18 11:01:16;;;;;;;;;;;;;;;20.74;100.00;104481.94;4996470;28;19996;-71
2022/03/18 11:03:45;;;;;;;;;;;;;;;21.71;100.00;104474.53;4996713;28;19922;-73
2022/03/18 11:06:10;;;;;;;;;;;;;;;21.87;100.00;104469.53;4995328;28;19960;-73
2022/03/18 11:08:44;;;;;;;;;;;;;;;21.95;100.00;104478.28;4996810;28;19929;-73
2022/03/18 11:11:14;;;;;;;;;;;;;;;23.20;100.00;104476.47;4996874;28;19957;-73
2022/03/18 11:13:39;;;;;;;;;;;;;;;23.40;100.00;104474.78;4999476;28;20001;-73
2022/03/18 11:16:05;;;;;;;;;;;;;;;22.95;100.00;104475.63;4996274;28;20011;-73
2022/03/18 11:18:30;;;;;;;;;;;;;;;23.80;100.00;104479.50;4982024;28;20367;-75
2022/03/18 11:20:57;;;;;;;;;;;;;;;24.36;100.00;104488.03;4999542;28;19973;-73
2022/03/18 11:23:25;;;;;;;;;;;;;;;24.50;100.00;104486.47;4996681;28;19918;-73
2022/03/18 11:25:53;;;;;;;;;;;;;;;24.18;100.00;104486.97;4995637;28;19953;-73
2022/03/18 11:28:18;;;;;;;;;;;;;;;24.83;100.00;104486.84;4995113;28;20367;-73
2022/03/18 11:30:45;;;;;;;;;;;;;;;24.67;100.00;104491.19;4996376;28;19924;-73
2022/03/18 11:33:10;;;;;;;;;;;;;;;25.07;100.00;104493.88;4996543;28;19924;-73
2022/03/18 11:35:48;;;;;;;;;;;;;;;26.00;100.00;104489.34;4995086;28;19918;-72
2022/03/18 11:38:14;;;;;;;;;;;;;;;25.78;100.00;104501.38;4992934;28;20287;-73
2022/03/18 11:40:50;;;;;;;;;;;;;;;25.48;100.00;104499.16;4994085;28;19940;-72
2022/03/18 11:43:30;;;;;;;;;;;;;;;26.17;100.00;104489.41;4991871;28;19922;-72
2022/03/18 11:46:17;;;;;;;;;;;;;;;26.04;100.00;104490.97;4995290;28;19964;-70
2022/03/18 11:48:51;;;;;;;;;;;;;;;26.64;100.00;104490.56;4996461;28;19925;-72
2022/03/18 11:51:35;;;;;;;;;;;;;;;26.35;100.00;104493.88;4995978;28;19918;-72
2022/03/18 11:54:10;;;;;;;;;;;;;;;27.88;100.00;104489.06;4995648;28;19922;-71
2022/03/18 11:56:41;;;;;;;;;;;;;;;27.57;100.00;104498.13;4991350;28;19922;-74
2022/03/18 11:59:25;;;;;;;;;;;;;;;26.97;100.00;104501.50;4994498;28;20005;-73
2022/03/18 12:01:54;;;;;;;;;;;;;;;27.25;100.00;104493.56;4990508;28;19922;-72
2022/03/18 12:04:36;;;;;;;;;;;;;;;27.46;100.00;104499.69;4979325;28;19969;-74
2022/03/18 12:07:08;;;;;;;;;;;;;;;27.59;100.00;104487.13;4998895;28;19918;-74
2022/03/18 12:09:50;;;;;;;;;;;;;;;29.83;100.00;104495.81;4983761;28;19918;-74
2022/03/18 12:12:16;;;;;;;;;;;;;;;28.92;100.00;104494.50;4989045;28;19921;-74
2022/03/18 12:14:41;;;;;;;;;;;;;;;29.92;98.78;104488.84;4985691;28;19988;-74
2022/03/18 12:17:06;;;;;;;;;;;;;;;29.41;100.00;104484.94;4989335;28;19934;-74
2022/03/18 12:19:32;;;;;;;;;;;;;;;28.34;100.00;104479.88;4977515;28;19957;-73
2022/03/18 12:21:59;;;;;;;;;;;;;;;28.95;100.00;104482.50;4995345;28;19917;-73
2022/03/18 12:24:27;;;;;;;;;;;;;;;29.44;97.76;104486.59;4991437;28;19926;-74
2022/03/18 12:26:52;;;;;;;;;;;;;;;28.65;100.00;104482.53;4990008;28;19922;-72
2022/03/18 12:29:23;;;;;;;;;;;;;;;28.77;99.66;104489.09;4988918;28;19928;-71
2022/03/18 12:31:49;;;;;;;;;;;;;;;28.44;100.00;104484.69;4983025;28;19922;-71
2022/03/18 12:34:15;;;;;;;;;;;;;;;29.95;93.54;104482.28;4988125;28;19922;-71
2022/03/18 12:36:43;;;;;;;;;;;;;;;30.30;83.57;104480.78;4987639;28;19997;-72
2022/03/18 12:39:17;;;;;;;;;;;;;;;29.11;86.68;104484.19;4981523;28;20334;-71
2022/03/18 12:41:43;;;;;;;;;;;;;;;28.53;98.56;104475.09;4985316;28;19918;-71
2022/03/18 12:44:09;;;;;;;;;;;;;;;28.83;93.73;104469.56;4989188;28;20386;-72
2022/03/18 12:46:35;;;;;;;;;;;;;;;28.47;98.12;104464.50;4992617;28;19929;-71
2022/03/18 12:49:00;;;;;;;;;;;;;;;26.32;100.00;104468.63;4993213;28;19918;-71
2022/03/18 12:51:26;;;;;;;;;;;;;;;25.76;100.00;104454.25;4990469;28;19929;-71
2022/03/18 12:53:51;;;;;;;;;;;;;;;24.95;100.00;104453.63;4987021;28;19972;-71